sensor_id;sensor_type;location;lat;lon;timestamp;temperature;humidity
76857;DHT22;69705;44.686;37.628;2023-08-06T00:01:13;29.07;51.37
76857;DHT22;69705;44.686;37.628;2023-08-06T00:03:45;29.06;51.79
76857;DHT22;69705;44.686;37.628;2023-08-06T00:06:16;29.01;52.12
76857;DHT22;69705;44.686;37.628;2023-08-06T00:08:48;28.97;51.95
76857;DHT22;69705;44.686;37.628;2023-08-06T00:11:20;28.91;52.17
76857;DHT22;69705;44.686;37.628;2023-08-06T00:13:53;28.90;52.53
76857;DHT22;69705;44.686;37.628;2023-08-06T00:16:25;28.85;52.39
76857;DHT22;69705;44.686;37.628;2023-08-06T00:18:57;28.83;52.72
76857;DHT22;69705;44.686;37.628;2023-08-06T00:21:29;28.78;53.02
76857;DHT22;69705;44.686;37.628;2023-08-06T00:24:01;28.72;53.34
76857;DHT22;69705;44.686;37.628;2023-08-06T00:26:33;28.65;53.36
76857;DHT22;69705;44.686;37.628;2023-08-06T00:29:04;28.60;54.26
76857;DHT22;69705;44.686;37.628;2023-08-06T00:31:36;28.56;53.71
76857;DHT22;69705;44.686;37.628;2023-08-06T00:34:08;28.54;53.67
76857;DHT22;69705;44.686;37.628;2023-08-06T00:36:41;28.53;53.93
76857;DHT22;69705;44.686;37.628;2023-08-06T00:39:13;28.48;53.96
76857;DHT22;69705;44.686;37.628;2023-08-06T00:41:45;28.46;54.57
76857;DHT22;69705;44.686;37.628;2023-08-06T00:44:17;28.39;54.41
76857;DHT22;69705;44.686;37.628;2023-08-06T00:46:49;28.33;54.68
76857;DHT22;69705;44.686;37.628;2023-08-06T00:49:21;28.28;55.39
76857;DHT22;69705;44.686;37.628;2023-08-06T00:51:53;28.21;55.23
76857;DHT22;69705;44.686;37.628;2023-08-06T00:54:25;28.21;54.99
76857;DHT22;69705;44.686;37.628;2023-08-06T00:56:59;28.19;55.35
76857;DHT22;69705;44.686;37.628;2023-08-06T00:59:36;28.14;55.43
76857;DHT22;69705;44.686;37.628;2023-08-06T01:02:09;28.10;55.58
76857;DHT22;69705;44.686;37.628;2023-08-06T01:04:41;28.06;55.84
76857;DHT22;69705;44.686;37.628;2023-08-06T01:10:10;28.01;56.28
76857;DHT22;69705;44.686;37.628;2023-08-06T01:15:30;27.91;56.36
76857;DHT22;69705;44.686;37.628;2023-08-06T01:18:04;27.88;56.58
76857;DHT22;69705;44.686;37.628;2023-08-06T01:20:36;27.80;56.95
76857;DHT22;69705;44.686;37.628;2023-08-06T01:23:08;27.76;56.97
76857;DHT22;69705;44.686;37.628;2023-08-06T01:25:49;27.75;57.11
76857;DHT22;69705;44.686;37.628;2023-08-06T01:28:59;27.71;57.35
76857;DHT22;69705;44.686;37.628;2023-08-06T01:31:37;27.64;57.96
76857;DHT22;69705;44.686;37.628;2023-08-06T01:34:16;27.56;57.86
76857;DHT22;69705;44.686;37.628;2023-08-06T01:36:50;27.54;58.38
76857;DHT22;69705;44.686;37.628;2023-08-06T01:39:22;27.49;58.35
76857;DHT22;69705;44.686;37.628;2023-08-06T01:41:54;27.39;58.41
76857;DHT22;69705;44.686;37.628;2023-08-06T01:44:26;27.36;58.67
76857;DHT22;69705;44.686;37.628;2023-08-06T01:46:57;27.38;58.64
76857;DHT22;69705;44.686;37.628;2023-08-06T01:49:29;27.31;59.51
76857;DHT22;69705;44.686;37.628;2023-08-06T01:52:01;27.26;59.63
76857;DHT22;69705;44.686;37.628;2023-08-06T01:54:33;27.21;59.61
76857;DHT22;69705;44.686;37.628;2023-08-06T01:57:05;27.15;59.64
76857;DHT22;69705;44.686;37.628;2023-08-06T01:59:37;27.12;60.00
76857;DHT22;69705;44.686;37.628;2023-08-06T02:02:09;27.09;59.66
76857;DHT22;69705;44.686;37.628;2023-08-06T02:04:41;27.09;59.74
76857;DHT22;69705;44.686;37.628;2023-08-06T02:07:13;27.05;59.77
76857;DHT22;69705;44.686;37.628;2023-08-06T02:09:44;27.04;60.22
76857;DHT22;69705;44.686;37.628;2023-08-06T02:12:16;27.02;60.26
76857;DHT22;69705;44.686;37.628;2023-08-06T02:14:48;26.99;60.26
76857;DHT22;69705;44.686;37.628;2023-08-06T02:17:20;26.98;60.15
76857;DHT22;69705;44.686;37.628;2023-08-06T02:19:52;26.94;60.31
76857;DHT22;69705;44.686;37.628;2023-08-06T02:22:23;26.91;60.51
76857;DHT22;69705;44.686;37.628;2023-08-06T02:24:55;26.90;60.28
76857;DHT22;69705;44.686;37.628;2023-08-06T02:27:27;26.85;60.47
76857;DHT22;69705;44.686;37.628;2023-08-06T02:29:59;26.83;60.38
76857;DHT22;69705;44.686;37.628;2023-08-06T02:32:31;26.84;60.38
76857;DHT22;69705;44.686;37.628;2023-08-06T02:35:06;26.82;60.98
76857;DHT22;69705;44.686;37.628;2023-08-06T02:37:38;26.80;61.02
76857;DHT22;69705;44.686;37.628;2023-08-06T02:40:10;26.79;61.10
76857;DHT22;69705;44.686;37.628;2023-08-06T02:42:42;26.78;60.95
76857;DHT22;69705;44.686;37.628;2023-08-06T02:45:14;26.76;61.76
76857;DHT22;69705;44.686;37.628;2023-08-06T02:47:46;26.71;61.82
76857;DHT22;69705;44.686;37.628;2023-08-06T02:50:18;26.66;61.78
76857;DHT22;69705;44.686;37.628;2023-08-06T02:52:50;26.62;61.99
76857;DHT22;69705;44.686;37.628;2023-08-06T02:55:22;26.65;61.63
76857;DHT22;69705;44.686;37.628;2023-08-06T02:57:55;26.65;62.12
76857;DHT22;69705;44.686;37.628;2023-08-06T03:00:27;26.64;62.29
76857;DHT22;69705;44.686;37.628;2023-08-06T03:02:59;26.61;62.79
76857;DHT22;69705;44.686;37.628;2023-08-06T03:05:51;26.57;63.05
76857;DHT22;69705;44.686;37.628;2023-08-06T03:08:26;26.55;62.74
76857;DHT22;69705;44.686;37.628;2023-08-06T03:10:58;26.54;62.86
76857;DHT22;69705;44.686;37.628;2023-08-06T03:13:30;26.53;63.36
76857;DHT22;69705;44.686;37.628;2023-08-06T03:16:03;26.52;63.79
76857;DHT22;69705;44.686;37.628;2023-08-06T03:18:36;26.48;63.72
76857;DHT22;69705;44.686;37.628;2023-08-06T03:21:10;26.48;62.71
76857;DHT22;69705;44.686;37.628;2023-08-06T03:23:42;26.49;64.15
76857;DHT22;69705;44.686;37.628;2023-08-06T03:26:15;26.47;63.90
76857;DHT22;69705;44.686;37.628;2023-08-06T03:28:47;26.48;64.93
76857;DHT22;69705;44.686;37.628;2023-08-06T03:31:19;26.50;64.08
76857;DHT22;69705;44.686;37.628;2023-08-06T03:33:51;26.54;64.34
76857;DHT22;69705;44.686;37.628;2023-08-06T03:36:29;26.61;63.39
76857;DHT22;69705;44.686;37.628;2023-08-06T03:39:01;26.73;63.11
76857;DHT22;69705;44.686;37.628;2023-08-06T03:41:35;26.81;63.07
76857;DHT22;69705;44.686;37.628;2023-08-06T03:44:12;26.83;63.86
76857;DHT22;69705;44.686;37.628;2023-08-06T03:46:44;26.82;63.36
76857;DHT22;69705;44.686;37.628;2023-08-06T03:49:16;26.83;63.49
76857;DHT22;69705;44.686;37.628;2023-08-06T03:51:48;26.82;64.39
76857;DHT22;69705;44.686;37.628;2023-08-06T03:54:20;26.84;63.15
76857;DHT22;69705;44.686;37.628;2023-08-06T03:56:51;26.91;63.83
76857;DHT22;69705;44.686;37.628;2023-08-06T03:59:23;26.98;61.60
76857;DHT22;69705;44.686;37.628;2023-08-06T04:01:55;27.12;61.54
76857;DHT22;69705;44.686;37.628;2023-08-06T04:04:28;27.17;62.79
76857;DHT22;69705;44.686;37.628;2023-08-06T04:07:00;27.25;61.84
76857;DHT22;69705;44.686;37.628;2023-08-06T04:09:32;27.36;61.52
76857;DHT22;69705;44.686;37.628;2023-08-06T04:12:04;27.43;61.19
76857;DHT22;69705;44.686;37.628;2023-08-06T04:14:36;27.55;61.00
76857;DHT22;69705;44.686;37.628;2023-08-06T04:17:08;27.64;60.83
76857;DHT22;69705;44.686;37.628;2023-08-06T04:19:40;27.74;60.70
76857;DHT22;69705;44.686;37.628;2023-08-06T04:22:12;27.82;60.46
76857;DHT22;69705;44.686;37.628;2023-08-06T04:24:45;27.90;60.34
76857;DHT22;69705;44.686;37.628;2023-08-06T04:27:18;27.91;61.61
76857;DHT22;69705;44.686;37.628;2023-08-06T04:29:51;27.99;61.50
76857;DHT22;69705;44.686;37.628;2023-08-06T04:32:23;28.05;60.65
76857;DHT22;69705;44.686;37.628;2023-08-06T04:34:58;28.13;60.64
76857;DHT22;69705;44.686;37.628;2023-08-06T04:37:31;28.23;60.14
76857;DHT22;69705;44.686;37.628;2023-08-06T04:40:03;28.30;59.93
76857;DHT22;69705;44.686;37.628;2023-08-06T04:42:40;28.40;59.36
76857;DHT22;69705;44.686;37.628;2023-08-06T04:45:12;28.52;59.03
76857;DHT22;69705;44.686;37.628;2023-08-06T04:47:44;28.62;58.65
76857;DHT22;69705;44.686;37.628;2023-08-06T04:50:16;28.72;58.94
76857;DHT22;69705;44.686;37.628;2023-08-06T04:52:48;28.78;60.09
76857;DHT22;69705;44.686;37.628;2023-08-06T04:55:20;28.86;58.45
76857;DHT22;69705;44.686;37.628;2023-08-06T04:57:51;28.97;58.86
76857;DHT22;69705;44.686;37.628;2023-08-06T05:00:23;29.04;59.24
76857;DHT22;69705;44.686;37.628;2023-08-06T05:02:55;29.12;58.14
76857;DHT22;69705;44.686;37.628;2023-08-06T05:05:28;29.23;58.38
76857;DHT22;69705;44.686;37.628;2023-08-06T05:08:00;29.34;58.55
76857;DHT22;69705;44.686;37.628;2023-08-06T05:10:31;29.42;56.68
76857;DHT22;69705;44.686;37.628;2023-08-06T05:13:03;29.54;58.25
76857;DHT22;69705;44.686;37.628;2023-08-06T05:15:35;29.62;57.25
76857;DHT22;69705;44.686;37.628;2023-08-06T05:18:08;29.73;56.41
76857;DHT22;69705;44.686;37.628;2023-08-06T05:20:41;29.80;56.76
76857;DHT22;69705;44.686;37.628;2023-08-06T05:23:15;29.89;56.10
76857;DHT22;69705;44.686;37.628;2023-08-06T05:25:47;30.02;55.36
76857;DHT22;69705;44.686;37.628;2023-08-06T05:28:18;30.12;54.65
76857;DHT22;69705;44.686;37.628;2023-08-06T05:30:50;30.24;55.63
76857;DHT22;69705;44.686;37.628;2023-08-06T05:33:22;30.38;53.78
76857;DHT22;69705;44.686;37.628;2023-08-06T05:35:54;30.48;55.40
76857;DHT22;69705;44.686;37.628;2023-08-06T05:38:27;30.61;55.24
76857;DHT22;69705;44.686;37.628;2023-08-06T05:40:58;30.68;52.65
76857;DHT22;69705;44.686;37.628;2023-08-06T05:43:30;30.82;50.66
76857;DHT22;69705;44.686;37.628;2023-08-06T05:46:02;30.91;51.79
76857;DHT22;69705;44.686;37.628;2023-08-06T05:48:35;31.08;50.05
76857;DHT22;69705;44.686;37.628;2023-08-06T05:51:07;31.23;48.95
76857;DHT22;69705;44.686;37.628;2023-08-06T05:53:39;31.38;50.02
76857;DHT22;69705;44.686;37.628;2023-08-06T05:56:11;31.52;48.82
76857;DHT22;69705;44.686;37.628;2023-08-06T05:58:43;31.60;48.22
76857;DHT22;69705;44.686;37.628;2023-08-06T06:01:15;31.68;48.16
76857;DHT22;69705;44.686;37.628;2023-08-06T06:03:47;31.78;49.11
76857;DHT22;69705;44.686;37.628;2023-08-06T06:06:18;31.85;49.15
76857;DHT22;69705;44.686;37.628;2023-08-06T06:08:51;31.90;48.55
76857;DHT22;69705;44.686;37.628;2023-08-06T06:11:23;31.95;49.47
76857;DHT22;69705;44.686;37.628;2023-08-06T06:13:55;32.00;48.41
76857;DHT22;69705;44.686;37.628;2023-08-06T06:16:27;32.08;48.00
76857;DHT22;69705;44.686;37.628;2023-08-06T06:18:59;32.11;47.93
76857;DHT22;69705;44.686;37.628;2023-08-06T06:21:30;32.19;48.60
76857;DHT22;69705;44.686;37.628;2023-08-06T06:24:03;32.30;47.05
76857;DHT22;69705;44.686;37.628;2023-08-06T06:26:35;32.39;47.73
76857;DHT22;69705;44.686;37.628;2023-08-06T06:29:07;32.47;46.99
76857;DHT22;69705;44.686;37.628;2023-08-06T06:31:39;32.48;46.13
76857;DHT22;69705;44.686;37.628;2023-08-06T06:34:11;32.55;47.33
76857;DHT22;69705;44.686;37.628;2023-08-06T06:36:43;32.57;46.61
76857;DHT22;69705;44.686;37.628;2023-08-06T06:39:15;32.55;46.39
76857;DHT22;69705;44.686;37.628;2023-08-06T06:41:47;32.57;47.00
76857;DHT22;69705;44.686;37.628;2023-08-06T06:44:29;32.55;45.52
76857;DHT22;69705;44.686;37.628;2023-08-06T06:47:01;32.55;45.77
76857;DHT22;69705;44.686;37.628;2023-08-06T06:49:33;32.56;45.99
76857;DHT22;69705;44.686;37.628;2023-08-06T06:52:05;32.54;46.05
76857;DHT22;69705;44.686;37.628;2023-08-06T06:54:37;32.49;46.20
76857;DHT22;69705;44.686;37.628;2023-08-06T06:57:33;32.45;47.18
76857;DHT22;69705;44.686;37.628;2023-08-06T07:00:06;32.48;47.22
76857;DHT22;69705;44.686;37.628;2023-08-06T07:02:38;32.53;47.07
76857;DHT22;69705;44.686;37.628;2023-08-06T07:05:11;32.54;47.06
76857;DHT22;69705;44.686;37.628;2023-08-06T07:07:43;32.57;47.52
76857;DHT22;69705;44.686;37.628;2023-08-06T07:10:16;32.48;48.12
76857;DHT22;69705;44.686;37.628;2023-08-06T07:12:48;32.43;48.19
76857;DHT22;69705;44.686;37.628;2023-08-06T07:15:20;32.42;47.61
76857;DHT22;69705;44.686;37.628;2023-08-06T07:17:52;32.52;49.64
76857;DHT22;69705;44.686;37.628;2023-08-06T07:20:24;32.58;47.45
76857;DHT22;69705;44.686;37.628;2023-08-06T07:22:56;32.64;48.84
76857;DHT22;69705;44.686;37.628;2023-08-06T07:25:28;32.62;48.02
76857;DHT22;69705;44.686;37.628;2023-08-06T07:27:59;32.62;48.12
76857;DHT22;69705;44.686;37.628;2023-08-06T07:30:33;32.68;48.19
76857;DHT22;69705;44.686;37.628;2023-08-06T07:33:05;32.81;48.62
76857;DHT22;69705;44.686;37.628;2023-08-06T07:35:38;32.79;48.08
76857;DHT22;69705;44.686;37.628;2023-08-06T07:38:10;32.81;47.73
76857;DHT22;69705;44.686;37.628;2023-08-06T07:40:42;32.77;47.39
76857;DHT22;69705;44.686;37.628;2023-08-06T07:43:14;32.75;48.55
76857;DHT22;69705;44.686;37.628;2023-08-06T07:45:46;32.77;47.53
76857;DHT22;69705;44.686;37.628;2023-08-06T07:48:18;32.81;48.76
76857;DHT22;69705;44.686;37.628;2023-08-06T07:50:53;32.89;49.47
76857;DHT22;69705;44.686;37.628;2023-08-06T07:53:26;32.97;48.31
76857;DHT22;69705;44.686;37.628;2023-08-06T08:46:21;33.53;48.94
76857;DHT22;69705;44.686;37.628;2023-08-06T08:48:54;33.61;48.55
76857;DHT22;69705;44.686;37.628;2023-08-06T08:51:27;33.58;49.20
76857;DHT22;69705;44.686;37.628;2023-08-06T08:54:00;33.72;47.98
76857;DHT22;69705;44.686;37.628;2023-08-06T08:56:33;33.82;48.33
76857;DHT22;69705;44.686;37.628;2023-08-06T08:59:05;33.95;49.34
76857;DHT22;69705;44.686;37.628;2023-08-06T09:01:38;34.21;48.13
76857;DHT22;69705;44.686;37.628;2023-08-06T09:04:12;34.27;47.88
76857;DHT22;69705;44.686;37.628;2023-08-06T09:06:46;34.42;47.11
76857;DHT22;69705;44.686;37.628;2023-08-06T09:09:33;34.53;47.87
76857;DHT22;69705;44.686;37.628;2023-08-06T09:12:15;34.52;47.39
76857;DHT22;69705;44.686;37.628;2023-08-06T09:31:02;34.80;48.27
76857;DHT22;69705;44.686;37.628;2023-08-06T09:33:36;34.80;46.44
76857;DHT22;69705;44.686;37.628;2023-08-06T09:36:11;34.79;48.05
76857;DHT22;69705;44.686;37.628;2023-08-06T09:38:43;34.95;48.19
76857;DHT22;69705;44.686;37.628;2023-08-06T09:41:26;35.06;47.54
76857;DHT22;69705;44.686;37.628;2023-08-06T09:44:00;35.08;46.84
76857;DHT22;69705;44.686;37.628;2023-08-06T09:46:32;35.24;47.12
76857;DHT22;69705;44.686;37.628;2023-08-06T09:49:06;35.33;47.53
76857;DHT22;69705;44.686;37.628;2023-08-06T09:51:41;35.51;46.60
76857;DHT22;69705;44.686;37.628;2023-08-06T09:54:15;35.53;46.28
76857;DHT22;69705;44.686;37.628;2023-08-06T09:56:48;35.52;45.77
76857;DHT22;69705;44.686;37.628;2023-08-06T09:59:20;35.58;46.16
76857;DHT22;69705;44.686;37.628;2023-08-06T10:01:54;35.56;45.77
76857;DHT22;69705;44.686;37.628;2023-08-06T10:04:29;35.77;46.80
76857;DHT22;69705;44.686;37.628;2023-08-06T10:07:02;35.85;45.41
76857;DHT22;69705;44.686;37.628;2023-08-06T10:09:33;35.96;46.09
76857;DHT22;69705;44.686;37.628;2023-08-06T10:12:06;35.96;45.15
76857;DHT22;69705;44.686;37.628;2023-08-06T10:14:38;35.96;45.12
76857;DHT22;69705;44.686;37.628;2023-08-06T10:17:11;35.88;45.58
76857;DHT22;69705;44.686;37.628;2023-08-06T10:19:43;35.89;45.22
76857;DHT22;69705;44.686;37.628;2023-08-06T10:22:17;36.17;45.48
76857;DHT22;69705;44.686;37.628;2023-08-06T10:27:31;36.37;44.16
76857;DHT22;69705;44.686;37.628;2023-08-06T10:30:26;36.44;45.00
76857;DHT22;69705;44.686;37.628;2023-08-06T10:33:02;36.48;43.63
76857;DHT22;69705;44.686;37.628;2023-08-06T10:35:37;36.64;42.60
76857;DHT22;69705;44.686;37.628;2023-08-06T10:38:11;36.61;42.16
76857;DHT22;69705;44.686;37.628;2023-08-06T10:41:02;36.67;43.44
76857;DHT22;69705;44.686;37.628;2023-08-06T10:43:33;36.77;42.24
76857;DHT22;69705;44.686;37.628;2023-08-06T10:46:09;36.86;42.03
76857;DHT22;69705;44.686;37.628;2023-08-06T10:48:40;36.67;42.61
76857;DHT22;69705;44.686;37.628;2023-08-06T10:51:09;36.62;42.41
76857;DHT22;69705;44.686;37.628;2023-08-06T10:53:38;36.58;43.42
76857;DHT22;69705;44.686;37.628;2023-08-06T10:56:19;36.82;43.47
76857;DHT22;69705;44.686;37.628;2023-08-06T10:58:47;36.88;42.11
76857;DHT22;69705;44.686;37.628;2023-08-06T11:01:15;36.91;43.07
76857;DHT22;69705;44.686;37.628;2023-08-06T11:03:46;37.05;43.06
76857;DHT22;69705;44.686;37.628;2023-08-06T11:06:19;37.10;41.52
76857;DHT22;69705;44.686;37.628;2023-08-06T11:08:53;37.23;41.84
76857;DHT22;69705;44.686;37.628;2023-08-06T11:11:23;37.30;41.09
76857;DHT22;69705;44.686;37.628;2023-08-06T11:13:50;37.29;41.07
76857;DHT22;69705;44.686;37.628;2023-08-06T11:16:19;37.40;41.59
76857;DHT22;69705;44.686;37.628;2023-08-06T11:18:47;37.61;40.46
76857;DHT22;69705;44.686;37.628;2023-08-06T11:21:14;37.80;41.03
76857;DHT22;69705;44.686;37.628;2023-08-06T11:23:44;37.86;39.34
76857;DHT22;69705;44.686;37.628;2023-08-06T11:26:11;37.71;39.45
76857;DHT22;69705;44.686;37.628;2023-08-06T11:28:38;37.61;39.11
76857;DHT22;69705;44.686;37.628;2023-08-06T11:31:05;37.77;38.14
76857;DHT22;69705;44.686;37.628;2023-08-06T11:33:32;37.77;37.63
76857;DHT22;69705;44.686;37.628;2023-08-06T11:35:59;37.80;39.64
76857;DHT22;69705;44.686;37.628;2023-08-06T11:38:28;37.74;39.49
76857;DHT22;69705;44.686;37.628;2023-08-06T11:40:55;37.76;39.62
76857;DHT22;69705;44.686;37.628;2023-08-06T11:43:22;37.67;39.97
76857;DHT22;69705;44.686;37.628;2023-08-06T11:45:50;37.64;39.31
76857;DHT22;69705;44.686;37.628;2023-08-06T11:48:17;37.63;38.72
76857;DHT22;69705;44.686;37.628;2023-08-06T11:50:44;37.54;40.01
76857;DHT22;69705;44.686;37.628;2023-08-06T11:53:15;37.40;39.36
76857;DHT22;69705;44.686;37.628;2023-08-06T11:55:43;37.13;40.65
76857;DHT22;69705;44.686;37.628;2023-08-06T11:58:11;36.99;40.98
76857;DHT22;69705;44.686;37.628;2023-08-06T12:00:39;37.03;40.88
76857;DHT22;69705;44.686;37.628;2023-08-06T12:03:05;37.23;41.33
76857;DHT22;69705;44.686;37.628;2023-08-06T12:05:33;37.35;40.86
76857;DHT22;69705;44.686;37.628;2023-08-06T12:08:01;37.46;39.60
76857;DHT22;69705;44.686;37.628;2023-08-06T12:10:30;37.35;40.68
76857;DHT22;69705;44.686;37.628;2023-08-06T12:12:57;37.33;38.86
76857;DHT22;69705;44.686;37.628;2023-08-06T12:15:24;37.14;41.14
76857;DHT22;69705;44.686;37.628;2023-08-06T12:17:51;37.05;39.81
76857;DHT22;69705;44.686;37.628;2023-08-06T12:20:18;37.21;39.66
76857;DHT22;69705;44.686;37.628;2023-08-06T12:22:45;37.35;38.62
76857;DHT22;69705;44.686;37.628;2023-08-06T12:25:13;37.34;40.14
76857;DHT22;69705;44.686;37.628;2023-08-06T12:27:42;37.41;40.49
76857;DHT22;69705;44.686;37.628;2023-08-06T12:30:10;37.25;39.95
76857;DHT22;69705;44.686;37.628;2023-08-06T12:32:38;37.29;40.24
76857;DHT22;69705;44.686;37.628;2023-08-06T12:35:05;37.38;39.10
76857;DHT22;69705;44.686;37.628;2023-08-06T12:37:34;37.19;37.80
76857;DHT22;69705;44.686;37.628;2023-08-06T12:40:01;37.10;40.25
76857;DHT22;69705;44.686;37.628;2023-08-06T12:42:28;37.05;39.90
76857;DHT22;69705;44.686;37.628;2023-08-06T12:44:55;36.97;38.34
76857;DHT22;69705;44.686;37.628;2023-08-06T12:47:22;36.82;40.55
76857;DHT22;69705;44.686;37.628;2023-08-06T12:49:49;36.92;41.04
76857;DHT22;69705;44.686;37.628;2023-08-06T12:52:16;36.86;39.01
76857;DHT22;69705;44.686;37.628;2023-08-06T12:54:47;36.82;39.23
76857;DHT22;69705;44.686;37.628;2023-08-06T12:57:14;36.81;40.18
76857;DHT22;69705;44.686;37.628;2023-08-06T12:59:41;36.83;39.05
76857;DHT22;69705;44.686;37.628;2023-08-06T13:02:11;36.86;38.42
76857;DHT22;69705;44.686;37.628;2023-08-06T13:04:38;36.87;39.94
76857;DHT22;69705;44.686;37.628;2023-08-06T13:07:06;36.78;40.43
76857;DHT22;69705;44.686;37.628;2023-08-06T13:09:33;36.84;39.40
76857;DHT22;69705;44.686;37.628;2023-08-06T13:12:00;36.87;40.20
76857;DHT22;69705;44.686;37.628;2023-08-06T13:14:31;36.84;39.16
76857;DHT22;69705;44.686;37.628;2023-08-06T13:16:58;36.83;40.42
76857;DHT22;69705;44.686;37.628;2023-08-06T13:19:25;36.72;39.82
76857;DHT22;69705;44.686;37.628;2023-08-06T13:21:59;36.63;39.36
76857;DHT22;69705;44.686;37.628;2023-08-06T13:24:28;36.59;39.85
76857;DHT22;69705;44.686;37.628;2023-08-06T13:26:55;36.41;39.37
76857;DHT22;69705;44.686;37.628;2023-08-06T13:29:21;36.30;40.67
76857;DHT22;69705;44.686;37.628;2023-08-06T13:31:48;36.27;41.00
76857;DHT22;69705;44.686;37.628;2023-08-06T13:34:15;36.33;40.82
76857;DHT22;69705;44.686;37.628;2023-08-06T13:36:43;36.41;40.72
76857;DHT22;69705;44.686;37.628;2023-08-06T13:39:10;36.36;38.69
76857;DHT22;69705;44.686;37.628;2023-08-06T13:41:38;36.07;39.72
76857;DHT22;69705;44.686;37.628;2023-08-06T13:44:06;36.01;40.16
76857;DHT22;69705;44.686;37.628;2023-08-06T13:46:33;36.01;40.19
76857;DHT22;69705;44.686;37.628;2023-08-06T13:49:00;36.00;40.68
76857;DHT22;69705;44.686;37.628;2023-08-06T13:51:27;35.90;40.49
76857;DHT22;69705;44.686;37.628;2023-08-06T13:53:55;35.77;41.06
76857;DHT22;69705;44.686;37.628;2023-08-06T13:56:24;35.78;41.94
76857;DHT22;69705;44.686;37.628;2023-08-06T13:58:51;35.73;40.78
76857;DHT22;69705;44.686;37.628;2023-08-06T14:01:18;35.59;41.54
76857;DHT22;69705;44.686;37.628;2023-08-06T14:03:45;35.48;41.62
76857;DHT22;69705;44.686;37.628;2023-08-06T14:06:12;35.37;42.11
76857;DHT22;69705;44.686;37.628;2023-08-06T14:08:39;35.25;42.30
76857;DHT22;69705;44.686;37.628;2023-08-06T14:11:06;35.13;43.36
76857;DHT22;69705;44.686;37.628;2023-08-06T14:13:33;35.12;43.65
76857;DHT22;69705;44.686;37.628;2023-08-06T14:16:00;35.04;42.75
76857;DHT22;69705;44.686;37.628;2023-08-06T14:18:27;34.94;42.94
76857;DHT22;69705;44.686;37.628;2023-08-06T14:20:54;34.83;43.79
76857;DHT22;69705;44.686;37.628;2023-08-06T14:23:21;34.68;44.02
76857;DHT22;69705;44.686;37.628;2023-08-06T14:25:48;34.53;44.52
76857;DHT22;69705;44.686;37.628;2023-08-06T14:28:15;34.37;44.78
76857;DHT22;69705;44.686;37.628;2023-08-06T14:30:42;34.29;44.72
76857;DHT22;69705;44.686;37.628;2023-08-06T14:33:08;34.18;45.77
76857;DHT22;69705;44.686;37.628;2023-08-06T14:35:36;34.04;46.16
76857;DHT22;69705;44.686;37.628;2023-08-06T14:38:03;33.96;46.38
76857;DHT22;69705;44.686;37.628;2023-08-06T14:40:29;33.88;46.27
76857;DHT22;69705;44.686;37.628;2023-08-06T14:43:01;33.78;47.10
76857;DHT22;69705;44.686;37.628;2023-08-06T14:45:29;33.62;47.13
76857;DHT22;69705;44.686;37.628;2023-08-06T14:47:56;33.52;47.88
76857;DHT22;69705;44.686;37.628;2023-08-06T14:50:23;33.42;47.93
76857;DHT22;69705;44.686;37.628;2023-08-06T14:52:50;33.30;48.61
76857;DHT22;69705;44.686;37.628;2023-08-06T14:55:24;33.15;48.73
76857;DHT22;69705;44.686;37.628;2023-08-06T14:57:52;33.09;49.39
76857;DHT22;69705;44.686;37.628;2023-08-06T15:00:20;33.05;49.97
76857;DHT22;69705;44.686;37.628;2023-08-06T15:02:48;32.97;49.13
76857;DHT22;69705;44.686;37.628;2023-08-06T15:05:15;32.97;49.92
76857;DHT22;69705;44.686;37.628;2023-08-06T15:07:42;32.96;49.51
76857;DHT22;69705;44.686;37.628;2023-08-06T15:10:09;32.93;49.69
76857;DHT22;69705;44.686;37.628;2023-08-06T15:12:36;32.85;49.08
76857;DHT22;69705;44.686;37.628;2023-08-06T15:15:05;32.81;49.51
76857;DHT22;69705;44.686;37.628;2023-08-06T15:17:33;32.75;50.42
76857;DHT22;69705;44.686;37.628;2023-08-06T15:20:00;32.66;53.88
76857;DHT22;69705;44.686;37.628;2023-08-06T15:22:28;32.50;53.88
76857;DHT22;69705;44.686;37.628;2023-08-06T15:25:00;32.35;56.48
76857;DHT22;69705;44.686;37.628;2023-08-06T15:27:28;32.27;53.65
76857;DHT22;69705;44.686;37.628;2023-08-06T15:29:54;32.17;53.89
76857;DHT22;69705;44.686;37.628;2023-08-06T15:32:21;32.15;51.94
76857;DHT22;69705;44.686;37.628;2023-08-06T15:34:50;32.11;52.46
76857;DHT22;69705;44.686;37.628;2023-08-06T15:37:17;32.07;54.29
76857;DHT22;69705;44.686;37.628;2023-08-06T15:39:44;31.95;53.93
76857;DHT22;69705;44.686;37.628;2023-08-06T15:42:12;31.90;56.75
76857;DHT22;69705;44.686;37.628;2023-08-06T15:44:39;31.79;58.94
76857;DHT22;69705;44.686;37.628;2023-08-06T15:47:06;31.63;58.16
76857;DHT22;69705;44.686;37.628;2023-08-06T15:49:33;31.46;57.29
76857;DHT22;69705;44.686;37.628;2023-08-06T15:52:01;31.29;59.37
76857;DHT22;69705;44.686;37.628;2023-08-06T15:54:28;31.22;62.41
76857;DHT22;69705;44.686;37.628;2023-08-06T15:56:56;31.10;61.59
76857;DHT22;69705;44.686;37.628;2023-08-06T15:59:31;31.00;59.57
76857;DHT22;69705;44.686;37.628;2023-08-06T16:02:00;30.99;60.32
76857;DHT22;69705;44.686;37.628;2023-08-06T16:04:29;30.85;60.04
76857;DHT22;69705;44.686;37.628;2023-08-06T16:06:58;30.72;62.29
76857;DHT22;69705;44.686;37.628;2023-08-06T16:09:27;30.71;66.07
76857;DHT22;69705;44.686;37.628;2023-08-06T16:11:54;30.59;57.80
76857;DHT22;69705;44.686;37.628;2023-08-06T16:14:21;30.54;57.26
76857;DHT22;69705;44.686;37.628;2023-08-06T16:16:48;30.52;60.96
76857;DHT22;69705;44.686;37.628;2023-08-06T16:19:14;30.38;62.92
76857;DHT22;69705;44.686;37.628;2023-08-06T16:21:41;30.28;64.29
76857;DHT22;69705;44.686;37.628;2023-08-06T16:24:08;30.17;68.98
76857;DHT22;69705;44.686;37.628;2023-08-06T16:26:35;29.98;67.01
76857;DHT22;69705;44.686;37.628;2023-08-06T16:29:02;29.85;70.60
76857;DHT22;69705;44.686;37.628;2023-08-06T16:31:30;29.70;71.18
76857;DHT22;69705;44.686;37.628;2023-08-06T16:33:57;29.58;66.46
76857;DHT22;69705;44.686;37.628;2023-08-06T16:36:24;29.48;67.44
76857;DHT22;69705;44.686;37.628;2023-08-06T16:38:51;29.31;66.98
76857;DHT22;69705;44.686;37.628;2023-08-06T16:41:19;29.27;69.07
76857;DHT22;69705;44.686;37.628;2023-08-06T16:43:46;29.26;70.26
76857;DHT22;69705;44.686;37.628;2023-08-06T16:46:12;29.13;67.64
76857;DHT22;69705;44.686;37.628;2023-08-06T16:48:39;29.01;71.12
76857;DHT22;69705;44.686;37.628;2023-08-06T16:51:08;28.88;70.82
76857;DHT22;69705;44.686;37.628;2023-08-06T16:53:37;28.73;68.51